createdAt,value
2018-07-07T00:00:56.249Z,0.00
2018-07-07T00:01:56.278Z,0.00
2018-07-07T00:02:56.289Z,0.00
2018-07-07T00:03:56.298Z,0.00
2018-07-07T00:04:56.320Z,0.00
2018-07-07T00:05:56.352Z,0.00
2018-07-07T00:06:56.354Z,0.00
2018-07-07T00:07:56.373Z,0.00
2018-07-07T00:08:56.394Z,0.00
2018-07-07T00:09:56.415Z,0.00
2018-07-07T00:10:56.434Z,0.00
2018-07-07T00:11:56.479Z,0.00
2018-07-07T00:12:56.474Z,0.00
2018-07-07T00:13:56.487Z,0.00
2018-07-07T00:14:56.529Z,0.00
2018-07-07T00:15:56.531Z,0.00
2018-07-07T00:16:56.553Z,0.00
2018-07-07T00:17:56.562Z,0.00
2018-07-07T00:18:56.584Z,0.00
2018-07-07T00:19:56.606Z,0.00
2018-07-07T00:20:56.619Z,0.00
2018-07-07T00:21:56.642Z,0.00
2018-07-07T00:22:56.659Z,0.00
2018-07-07T00:23:56.684Z,0.00
2018-07-07T00:24:56.696Z,0.00
2018-07-07T00:25:56.731Z,0.00
2018-07-07T00:26:56.732Z,0.00
2018-07-07T00:27:56.754Z,0.00
2018-07-07T00:28:56.778Z,0.00
2018-07-07T00:29:56.788Z,0.00
2018-07-07T00:30:56.808Z,0.00
2018-07-07T00:31:56.831Z,0.00
2018-07-07T00:32:56.849Z,0.00
2018-07-07T00:33:56.870Z,0.00
2018-07-07T00:34:56.883Z,0.00
2018-07-07T00:35:56.904Z,0.00
2018-07-07T00:36:56.926Z,0.00
2018-07-07T00:37:56.941Z,0.00
2018-07-07T00:38:56.959Z,0.00
2018-07-07T00:39:56.977Z,0.00
2018-07-07T00:40:56.994Z,0.00
2018-07-07T00:41:57.020Z,0.00
2018-07-07T00:42:57.034Z,0.00
2018-07-07T00:43:57.056Z,0.00
2018-07-07T00:44:57.081Z,0.00
2018-07-07T00:45:57.096Z,0.00
2018-07-07T00:46:57.113Z,0.00
2018-07-07T00:47:57.126Z,0.00
2018-07-07T00:48:57.154Z,0.00
2018-07-07T00:49:57.166Z,0.00
2018-07-07T00:50:57.183Z,0.00
2018-07-07T00:51:57.199Z,0.00
2018-07-07T00:52:57.223Z,0.00
2018-07-07T00:53:57.239Z,0.00
2018-07-07T00:54:57.261Z,0.00
2018-07-07T00:55:57.274Z,0.00
2018-07-07T00:56:57.293Z,0.00
2018-07-07T00:57:57.318Z,0.00
2018-07-07T00:58:57.331Z,0.00
2018-07-07T00:59:57.349Z,0.00
2018-07-07T01:00:57.373Z,0.00
2018-07-07T01:01:57.395Z,0.00
2018-07-07T01:02:57.409Z,0.00
2018-07-07T01:03:57.424Z,0.00
2018-07-07T01:04:57.441Z,0.00
2018-07-07T01:05:57.460Z,0.00
2018-07-07T01:06:57.483Z,0.00
2018-07-07T01:07:57.507Z,0.00
2018-07-07T01:08:57.518Z,0.00
2018-07-07T01:09:57.537Z,0.00
2018-07-07T01:10:57.555Z,0.00
2018-07-07T01:11:57.575Z,0.00
2018-07-07T01:12:57.590Z,0.00
2018-07-07T01:13:57.607Z,0.00
2018-07-07T01:14:57.632Z,0.00
2018-07-07T01:15:57.644Z,0.00
2018-07-07T01:16:57.662Z,0.00
2018-07-07T01:17:57.693Z,0.00
2018-07-07T01:18:57.707Z,0.00
2018-07-07T01:19:57.721Z,0.00
2018-07-07T01:20:57.746Z,0.00
2018-07-07T01:21:57.758Z,0.00
2018-07-07T01:22:57.781Z,0.00
2018-07-07T01:23:57.790Z,0.00
2018-07-07T01:24:57.818Z,0.00
2018-07-07T01:25:57.827Z,0.00
2018-07-07T01:26:57.864Z,0.00
2018-07-07T01:27:57.864Z,0.00
2018-07-07T01:28:57.884Z,0.00
2018-07-07T01:29:57.905Z,0.00
2018-07-07T01:30:57.923Z,0.00
2018-07-07T01:31:57.949Z,0.00
2018-07-07T01:32:57.963Z,0.00
2018-07-07T01:33:57.978Z,0.00
2018-07-07T01:34:58.001Z,0.00
2018-07-07T01:35:58.018Z,0.00
2018-07-07T01:36:58.039Z,0.00
2018-07-07T01:37:58.053Z,0.00
2018-07-07T01:38:58.073Z,0.00
2018-07-07T01:39:58.090Z,0.00
2018-07-07T01:40:58.117Z,0.00
2018-07-07T01:41:58.133Z,0.00
2018-07-07T01:42:58.149Z,0.00
2018-07-07T01:43:58.168Z,0.00
2018-07-07T01:44:58.190Z,0.00
2018-07-07T01:45:58.215Z,0.00
2018-07-07T01:46:58.217Z,0.00
2018-07-07T01:47:58.235Z,0.00
2018-07-07T01:48:58.250Z,0.00
2018-07-07T01:49:58.272Z,0.00
2018-07-07T01:50:58.287Z,0.00
2018-07-07T01:51:58.304Z,0.00
2018-07-07T01:52:58.331Z,0.00
2018-07-07T01:53:58.347Z,0.00
2018-07-07T01:54:58.361Z,0.00
2018-07-07T01:55:58.390Z,0.00
2018-07-07T01:56:58.397Z,0.00
2018-07-07T01:57:58.433Z,0.00
2018-07-07T01:58:58.436Z,0.00
2018-07-07T01:59:58.453Z,0.00
2018-07-07T02:00:58.469Z,0.00
2018-07-07T02:01:58.488Z,0.00
2018-07-07T02:02:58.511Z,0.00
2018-07-07T02:03:58.525Z,0.00
2018-07-07T02:04:58.544Z,0.00
2018-07-07T02:05:58.564Z,0.00
2018-07-07T02:06:58.596Z,0.00
2018-07-07T02:07:58.596Z,0.00
2018-07-07T02:08:58.619Z,0.00
2018-07-07T02:09:58.636Z,0.00
2018-07-07T02:10:58.661Z,0.00
2018-07-07T02:11:58.668Z,0.00
2018-07-07T02:12:58.694Z,0.00
2018-07-07T02:13:58.708Z,0.00
2018-07-07T02:14:58.728Z,0.00
2018-07-07T02:15:58.770Z,0.00
2018-07-07T02:16:58.765Z,0.00
2018-07-07T02:17:58.783Z,0.00
2018-07-07T02:18:58.793Z,0.00
2018-07-07T02:19:58.817Z,0.00
2018-07-07T02:20:58.841Z,0.00
2018-07-07T02:21:58.856Z,0.00
2018-07-07T02:22:58.874Z,0.00
2018-07-07T02:23:58.890Z,0.00
2018-07-07T02:24:58.909Z,0.00
2018-07-07T02:25:58.924Z,0.00
2018-07-07T02:26:58.945Z,0.00
2018-07-07T02:27:58.962Z,0.00
2018-07-07T02:28:58.983Z,0.00
2018-07-07T02:29:58.995Z,0.00
2018-07-07T02:30:59.021Z,0.00
2018-07-07T02:31:59.031Z,0.00
2018-07-07T02:32:59.060Z,0.00
2018-07-07T02:33:59.074Z,0.00
2018-07-07T02:34:59.088Z,0.00
2018-07-07T02:35:59.107Z,0.00
2018-07-07T02:36:59.132Z,0.00
2018-07-07T02:37:59.146Z,0.00
2018-07-07T02:38:59.157Z,0.00
2018-07-07T02:39:59.177Z,0.00
2018-07-07T02:40:59.193Z,0.00
2018-07-07T02:41:59.216Z,0.00
2018-07-07T02:42:59.241Z,0.00
2018-07-07T02:43:59.249Z,0.00
2018-07-07T02:44:59.271Z,0.00
2018-07-07T02:45:59.290Z,0.00
2018-07-07T02:46:59.300Z,0.00
2018-07-07T02:47:59.321Z,0.00
2018-07-07T02:48:59.335Z,0.00
2018-07-07T02:49:59.359Z,0.00
2018-07-07T02:50:59.380Z,0.00
2018-07-07T02:51:59.390Z,0.00
2018-07-07T02:52:59.408Z,0.00
2018-07-07T02:53:59.429Z,0.00
2018-07-07T02:54:59.453Z,0.00
2018-07-07T02:55:59.469Z,0.00
2018-07-07T02:56:59.478Z,5.63
2018-07-07T02:57:59.504Z,5.63
2018-07-07T02:58:59.516Z,5.63
2018-07-07T02:59:59.549Z,5.63
2018-07-07T03:00:59.554Z,5.63
2018-07-07T03:01:59.575Z,5.63
2018-07-07T03:02:59.607Z,5.63
2018-07-07T03:03:59.609Z,11.25
2018-07-07T03:04:59.627Z,11.25
2018-07-07T03:05:59.642Z,11.25
2018-07-07T03:06:59.679Z,11.25
2018-07-07T03:07:59.682Z,11.25
2018-07-07T03:08:59.701Z,11.25
2018-07-07T03:09:59.725Z,11.25
2018-07-07T03:10:59.730Z,16.88
2018-07-07T03:11:59.761Z,16.88
2018-07-07T03:12:59.780Z,16.88
2018-07-07T03:13:59.795Z,16.88
2018-07-07T03:14:59.863Z,16.88
2018-07-07T03:15:59.824Z,16.88
2018-07-07T03:16:59.837Z,22.50
2018-07-07T03:17:59.861Z,22.50
2018-07-07T03:18:59.875Z,22.50
2018-07-07T03:19:59.897Z,22.50
2018-07-07T03:20:59.912Z,28.13
2018-07-07T03:21:59.936Z,28.13
2018-07-07T03:22:59.949Z,28.13
2018-07-07T03:23:59.978Z,33.75
2018-07-07T03:24:59.990Z,33.75
2018-07-07T03:26:00.001Z,39.38
2018-07-07T03:27:00.117Z,39.38
2018-07-07T03:28:00.053Z,39.38
2018-07-07T03:29:00.056Z,45.00
2018-07-07T03:30:00.080Z,45.00
2018-07-07T03:31:00.115Z,50.63
2018-07-07T03:32:00.120Z,50.63
2018-07-07T03:33:00.151Z,50.63
2018-07-07T03:34:00.172Z,56.25
2018-07-07T03:35:00.199Z,56.25
2018-07-07T03:36:00.178Z,56.25
2018-07-07T03:37:00.195Z,61.88
2018-07-07T03:38:00.253Z,61.88
2018-07-07T03:39:00.232Z,61.88
2018-07-07T03:40:00.257Z,67.50
2018-07-07T03:41:00.309Z,67.50
2018-07-07T03:42:00.284Z,73.13
2018-07-07T03:43:00.318Z,73.13
2018-07-07T03:44:00.338Z,73.13
2018-07-07T03:45:00.338Z,78.75
2018-07-07T03:46:00.358Z,78.75
2018-07-07T03:47:00.380Z,78.75
2018-07-07T03:48:00.392Z,84.38
2018-07-07T03:49:00.410Z,84.38
2018-07-07T03:50:00.427Z,90.00
2018-07-07T03:51:00.449Z,90.00
2018-07-07T03:52:00.461Z,95.63
2018-07-07T03:53:00.487Z,95.63
2018-07-07T03:54:00.500Z,101.25
2018-07-07T03:55:00.522Z,101.25
2018-07-07T03:56:00.534Z,101.25
2018-07-07T03:57:00.564Z,106.88
2018-07-07T03:58:00.573Z,106.88
2018-07-07T03:59:00.611Z,112.50
2018-07-07T04:00:00.608Z,118.13
2018-07-07T04:01:00.633Z,118.13
2018-07-07T04:02:00.646Z,123.75
2018-07-07T04:03:00.666Z,129.38
2018-07-07T04:04:00.679Z,135.00
2018-07-07T04:05:00.699Z,140.63
2018-07-07T04:06:00.716Z,146.25
2018-07-07T04:07:00.734Z,151.88
2018-07-07T04:08:00.750Z,151.88
2018-07-07T04:09:00.769Z,151.88
2018-07-07T04:10:00.790Z,157.50
2018-07-07T04:11:00.803Z,163.13
2018-07-07T04:12:00.820Z,168.75
2018-07-07T04:13:00.855Z,168.75
2018-07-07T04:14:00.877Z,174.38
2018-07-07T04:15:00.909Z,174.38
2018-07-07T04:16:00.897Z,180.00
2018-07-07T04:17:00.917Z,180.00
2018-07-07T04:18:00.928Z,185.63
2018-07-07T04:19:00.949Z,185.63
2018-07-07T04:20:01.029Z,191.25
2018-07-07T04:21:01.008Z,191.25
2018-07-07T04:22:01.003Z,196.88
2018-07-07T04:23:01.021Z,196.88
2018-07-07T04:24:01.042Z,202.50
2018-07-07T04:25:01.062Z,202.50
2018-07-07T04:26:01.092Z,208.13
2018-07-07T04:27:01.099Z,208.13
2018-07-07T04:28:01.113Z,208.13
2018-07-07T04:29:01.130Z,213.75
2018-07-07T04:30:01.152Z,219.38
2018-07-07T04:31:01.169Z,219.38
2018-07-07T04:32:01.198Z,225.00
2018-07-07T04:33:01.211Z,230.63
2018-07-07T04:34:01.224Z,230.63
2018-07-07T04:35:01.243Z,236.25
2018-07-07T04:36:01.270Z,241.88
2018-07-07T04:37:01.280Z,241.88
2018-07-07T04:38:01.296Z,247.50
2018-07-07T04:39:01.311Z,247.50
2018-07-07T04:40:01.329Z,253.13
2018-07-07T04:41:01.353Z,258.75
2018-07-07T04:42:01.386Z,258.75
2018-07-07T04:43:01.387Z,264.38
2018-07-07T04:44:01.411Z,275.63
2018-07-07T04:45:01.427Z,275.63
2018-07-07T04:46:01.470Z,286.88
2018-07-07T04:47:01.473Z,292.50
2018-07-07T04:48:01.478Z,298.13
2018-07-07T04:49:01.505Z,303.75
2018-07-07T04:50:01.526Z,309.38
2018-07-07T04:51:01.542Z,320.63
2018-07-07T04:52:01.559Z,326.25
2018-07-07T04:53:01.598Z,331.88
2018-07-07T04:54:01.596Z,348.75
2018-07-07T04:55:01.610Z,371.25
2018-07-07T04:56:01.634Z,388.13
2018-07-07T04:57:01.658Z,551.25
2018-07-07T04:58:01.668Z,1271.25
2018-07-07T04:59:01.689Z,1721.25
2018-07-07T05:00:01.710Z,1575.00
2018-07-07T05:01:01.725Z,1591.88
2018-07-07T05:02:01.751Z,1698.75
2018-07-07T05:03:01.779Z,1687.50
2018-07-07T05:04:01.788Z,1563.75
2018-07-07T05:05:01.810Z,1586.25
2018-07-07T05:06:01.841Z,1698.75
2018-07-07T05:07:01.856Z,1906.88
2018-07-07T05:08:01.881Z,2053.13
2018-07-07T05:09:01.907Z,2047.50
2018-07-07T05:10:01.920Z,2047.50
2018-07-07T05:11:01.943Z,2030.63
2018-07-07T05:12:01.965Z,1974.38
2018-07-07T05:13:02.006Z,1985.63
2018-07-07T05:14:02.014Z,2064.38
2018-07-07T05:15:02.046Z,2053.13
2018-07-07T05:16:02.063Z,1935.00
2018-07-07T05:17:02.087Z,1991.25
2018-07-07T05:18:02.109Z,2064.38
2018-07-07T05:19:02.130Z,2019.38
2018-07-07T05:20:02.163Z,2002.50
2018-07-07T05:21:02.182Z,1991.25
2018-07-07T05:22:02.215Z,1985.63
2018-07-07T05:23:02.235Z,1974.38
2018-07-07T05:24:02.266Z,1957.50
2018-07-07T05:25:02.288Z,1985.63
2018-07-07T05:26:02.311Z,1980.00
2018-07-07T05:27:02.339Z,1901.25
2018-07-07T05:28:02.365Z,1648.13
2018-07-07T05:29:02.398Z,1777.50
2018-07-07T05:30:02.427Z,1845.00
2018-07-07T05:31:02.443Z,1901.25
2018-07-07T05:32:02.499Z,1794.38
2018-07-07T05:33:02.499Z,1777.50
2018-07-07T05:34:02.684Z,1873.13
2018-07-07T05:35:02.560Z,1783.13
2018-07-07T05:36:02.587Z,1788.75
2018-07-07T05:37:02.613Z,1670.63
2018-07-07T05:38:02.649Z,2165.63
2018-07-07T05:39:02.661Z,2041.88
2018-07-07T05:40:02.685Z,2064.38
2018-07-07T05:41:02.715Z,2210.63
2018-07-07T05:42:02.744Z,2340.00
2018-07-07T05:43:02.771Z,2334.38
2018-07-07T05:44:02.803Z,2340.00
2018-07-07T05:45:02.819Z,2351.25
2018-07-07T05:46:02.853Z,2379.38
2018-07-07T05:47:02.882Z,2413.13
2018-07-07T05:48:02.908Z,2469.38
2018-07-07T05:49:02.935Z,2531.25
2018-07-07T05:50:03.038Z,2390.63
2018-07-07T05:51:02.986Z,2148.75
2018-07-07T05:52:03.021Z,2283.75
2018-07-07T05:53:03.040Z,1895.63
2018-07-07T05:54:03.075Z,1884.38
2018-07-07T05:55:03.098Z,2137.50
2018-07-07T05:56:03.133Z,2092.50
2018-07-07T05:57:03.154Z,2199.38
2018-07-07T05:58:03.186Z,2317.50
2018-07-07T05:59:03.215Z,2452.50
2018-07-07T06:00:03.238Z,2407.50
2018-07-07T06:01:03.273Z,2486.25
2018-07-07T06:02:03.298Z,2435.63
2018-07-07T06:03:03.325Z,2536.88
2018-07-07T06:04:03.355Z,2666.25
2018-07-07T06:05:03.381Z,2542.50
2018-07-07T06:06:03.415Z,2503.13
2018-07-07T06:07:03.473Z,2536.88
2018-07-07T06:08:03.467Z,2542.50
2018-07-07T06:09:03.510Z,1895.63
2018-07-07T06:10:03.530Z,2604.38
2018-07-07T06:11:03.554Z,2621.25
2018-07-07T06:12:03.588Z,2700.00
2018-07-07T06:13:03.618Z,2548.13
2018-07-07T06:14:03.645Z,1665.00
2018-07-07T06:15:03.674Z,1333.13
2018-07-07T06:16:03.704Z,871.88
2018-07-07T06:17:03.736Z,2289.38
2018-07-07T06:18:03.769Z,2525.63
2018-07-07T06:19:03.791Z,2373.75
2018-07-07T06:20:03.867Z,1676.25
2018-07-07T06:21:03.849Z,810.00
2018-07-07T06:22:03.882Z,1726.88
2018-07-07T06:23:03.903Z,2311.88
2018-07-07T06:24:03.937Z,2418.75
2018-07-07T06:25:03.972Z,2351.25
2018-07-07T06:26:03.993Z,2356.88
2018-07-07T06:27:04.028Z,2508.75
2018-07-07T06:28:04.054Z,2475.00
2018-07-07T06:29:04.091Z,2283.75
2018-07-07T06:30:04.113Z,2351.25
2018-07-07T06:31:04.135Z,2480.63
2018-07-07T06:32:04.168Z,2508.75
2018-07-07T06:33:04.193Z,1974.38
2018-07-07T06:34:04.230Z,1743.75
2018-07-07T06:35:04.248Z,1923.75
2018-07-07T06:36:04.299Z,1878.75
2018-07-07T06:37:04.320Z,1715.63
2018-07-07T06:38:04.339Z,2176.88
2018-07-07T06:39:04.376Z,1850.63
2018-07-07T06:40:04.394Z,2536.88
2018-07-07T06:41:04.445Z,2649.38
2018-07-07T06:42:04.458Z,2604.38
2018-07-07T06:43:04.487Z,2306.25
2018-07-07T06:44:04.511Z,2036.25
2018-07-07T06:45:04.558Z,2373.75
2018-07-07T06:46:04.571Z,2508.75
2018-07-07T06:47:04.608Z,2480.63
2018-07-07T06:48:04.623Z,2542.50
2018-07-07T06:49:04.660Z,2671.88
2018-07-07T06:50:04.683Z,2728.13
2018-07-07T06:51:04.711Z,2688.75
2018-07-07T06:52:04.744Z,2683.13
2018-07-07T06:53:04.775Z,2677.50
2018-07-07T06:54:04.900Z,2694.38
2018-07-07T06:55:04.829Z,2711.25
2018-07-07T06:56:04.879Z,2671.88
2018-07-07T06:57:04.893Z,2750.63
2018-07-07T06:58:04.927Z,2598.75
2018-07-07T06:59:04.952Z,2261.25
2018-07-07T07:00:05.048Z,2300.63
2018-07-07T07:01:05.009Z,2441.25
2018-07-07T07:02:05.049Z,2587.50
2018-07-07T07:03:05.067Z,2638.13
2018-07-07T07:04:05.111Z,2615.63
2018-07-07T07:05:05.128Z,2559.38
2018-07-07T07:06:05.171Z,2531.25
2018-07-07T07:07:05.194Z,2632.50
2018-07-07T07:08:05.215Z,2790.00
2018-07-07T07:09:05.259Z,2733.75
2018-07-07T07:10:05.289Z,2722.50
2018-07-07T07:11:05.309Z,2829.38
2018-07-07T07:12:05.367Z,3048.75
2018-07-07T07:13:05.367Z,2964.38
2018-07-07T07:14:05.396Z,2998.13
2018-07-07T07:15:05.427Z,3009.38
2018-07-07T07:16:05.466Z,2857.50
2018-07-07T07:17:05.494Z,2835.00
2018-07-07T07:18:05.517Z,2902.50
2018-07-07T07:19:05.546Z,2919.38
2018-07-07T07:20:05.582Z,2998.13
2018-07-07T07:21:05.624Z,3026.25
2018-07-07T07:22:05.634Z,3003.75
2018-07-07T07:23:05.679Z,3015.00
2018-07-07T07:24:05.701Z,2992.50
2018-07-07T07:25:05.727Z,2930.63
2018-07-07T07:26:05.839Z,3003.75
2018-07-07T07:27:05.797Z,3003.75
2018-07-07T07:28:05.834Z,2947.50
2018-07-07T07:29:05.853Z,2941.88
2018-07-07T07:30:05.880Z,2941.88
2018-07-07T07:31:05.908Z,2711.25
2018-07-07T07:32:05.936Z,2716.88
2018-07-07T07:33:06.041Z,2700.00
2018-07-07T07:34:05.990Z,2745.00
2018-07-07T07:35:06.027Z,3155.63
2018-07-07T07:36:06.051Z,3155.63
2018-07-07T07:37:06.078Z,2891.25
2018-07-07T07:38:06.113Z,3099.38
2018-07-07T07:39:06.145Z,2953.13
2018-07-07T07:40:06.183Z,2823.75
2018-07-07T07:41:06.227Z,2761.88
2018-07-07T07:42:06.241Z,2863.13
2018-07-07T07:43:06.268Z,3037.50
2018-07-07T07:44:06.298Z,2891.25
2018-07-07T07:45:06.331Z,2823.75
2018-07-07T07:46:06.368Z,2880.00
2018-07-07T07:47:06.386Z,2851.88
2018-07-07T07:48:06.422Z,3060.00
2018-07-07T07:49:06.457Z,3138.75
2018-07-07T07:50:06.481Z,2970.00
2018-07-07T07:51:06.506Z,2885.63
2018-07-07T07:52:06.543Z,2823.75
2018-07-07T07:53:06.596Z,2773.13
2018-07-07T07:54:06.606Z,2767.50
2018-07-07T07:55:06.631Z,2745.00
2018-07-07T07:56:06.662Z,2840.63
2018-07-07T07:57:06.694Z,2930.63
2018-07-07T07:58:06.723Z,2863.13
2018-07-07T07:59:06.900Z,2694.38
2018-07-07T08:00:06.791Z,2711.25
2018-07-07T08:01:06.844Z,2761.88
2018-07-07T08:02:06.856Z,2711.25
2018-07-07T08:03:06.879Z,2739.38
2018-07-07T08:04:06.919Z,2632.50
2018-07-07T08:05:06.945Z,2469.38
2018-07-07T08:06:06.976Z,2486.25
2018-07-07T08:07:07.006Z,2593.13
2018-07-07T08:08:07.044Z,2711.25
2018-07-07T08:09:07.085Z,2840.63
2018-07-07T08:10:07.097Z,2823.75
2018-07-07T08:11:07.132Z,2739.38
2018-07-07T08:12:07.153Z,2694.38
2018-07-07T08:13:07.186Z,2790.00
2018-07-07T08:14:07.245Z,2700.00
2018-07-07T08:15:07.251Z,2778.75
2018-07-07T08:16:07.276Z,2778.75
2018-07-07T08:17:07.320Z,2660.63
2018-07-07T08:18:07.341Z,2570.63
2018-07-07T08:19:07.371Z,2227.50
2018-07-07T08:20:07.407Z,2401.88
2018-07-07T08:21:07.437Z,2626.88
2018-07-07T08:22:07.487Z,2649.38
2018-07-07T08:23:07.495Z,2649.38
2018-07-07T08:24:07.526Z,2604.38
2018-07-07T08:25:07.554Z,2334.38
2018-07-07T08:26:07.587Z,2340.00
2018-07-07T08:27:07.626Z,2553.75
2018-07-07T08:28:07.647Z,2553.75
2018-07-07T08:29:07.677Z,2469.38
2018-07-07T08:30:07.706Z,2446.88
2018-07-07T08:31:07.735Z,2694.38
2018-07-07T08:32:07.758Z,2649.38
2018-07-07T08:33:07.797Z,2655.00
2018-07-07T08:34:07.839Z,2508.75
2018-07-07T08:35:07.854Z,2255.63
2018-07-07T08:36:07.890Z,2148.75
2018-07-07T08:37:07.922Z,1693.13
2018-07-07T08:38:07.934Z,793.13
2018-07-07T08:39:07.972Z,506.25
2018-07-07T08:40:07.988Z,478.13
2018-07-07T08:41:08.013Z,478.13
2018-07-07T08:42:08.092Z,478.13
2018-07-07T08:43:08.072Z,483.75
2018-07-07T08:44:08.107Z,495.00
2018-07-07T08:45:08.127Z,506.25
2018-07-07T08:46:08.153Z,517.50
2018-07-07T08:47:08.178Z,506.25
2018-07-07T08:48:08.205Z,517.50
2018-07-07T08:49:08.238Z,511.88
2018-07-07T08:50:08.256Z,517.50
2018-07-07T08:51:08.282Z,528.75
2018-07-07T08:52:08.318Z,534.38
2018-07-07T08:53:08.336Z,540.00
2018-07-07T08:54:08.368Z,534.38
2018-07-07T08:55:08.389Z,511.88
2018-07-07T08:56:08.411Z,500.63
2018-07-07T08:57:08.439Z,478.13
2018-07-07T08:58:08.466Z,466.88
2018-07-07T08:59:08.490Z,461.25
2018-07-07T09:00:08.519Z,466.88
2018-07-07T09:01:08.538Z,455.63
2018-07-07T09:02:08.624Z,455.63
2018-07-07T09:03:08.584Z,455.63
2018-07-07T09:04:08.621Z,450.00
2018-07-07T09:05:08.636Z,450.00
2018-07-07T09:06:08.663Z,450.00
2018-07-07T09:07:08.692Z,450.00
2018-07-07T09:08:08.716Z,438.75
2018-07-07T09:09:08.734Z,427.50
2018-07-07T09:10:08.766Z,421.88
2018-07-07T09:11:08.783Z,421.88
2018-07-07T09:12:08.812Z,433.13
2018-07-07T09:13:08.838Z,444.38
2018-07-07T09:14:08.918Z,427.50
2018-07-07T09:15:08.884Z,427.50
2018-07-07T09:16:08.914Z,427.50
2018-07-07T09:17:08.930Z,427.50
2018-07-07T09:18:08.961Z,421.88
2018-07-07T09:19:08.979Z,427.50
2018-07-07T09:20:09.035Z,433.13
2018-07-07T09:21:09.047Z,421.88
2018-07-07T09:22:09.080Z,416.25
2018-07-07T09:23:09.075Z,405.00
2018-07-07T09:24:09.099Z,399.38
2018-07-07T09:25:09.132Z,388.13
2018-07-07T09:26:09.194Z,388.13
2018-07-07T09:27:09.176Z,382.50
2018-07-07T09:28:09.199Z,376.88
2018-07-07T09:29:09.224Z,376.88
2018-07-07T09:30:09.262Z,371.25
2018-07-07T09:31:09.273Z,371.25
2018-07-07T09:32:09.295Z,371.25
2018-07-07T09:33:09.319Z,382.50
2018-07-07T09:34:09.353Z,399.38
2018-07-07T09:35:09.374Z,410.63
2018-07-07T09:36:09.447Z,427.50
2018-07-07T09:37:09.418Z,433.13
2018-07-07T09:38:09.458Z,444.38
2018-07-07T09:39:09.467Z,438.75
2018-07-07T09:40:09.492Z,433.13
2018-07-07T09:41:09.513Z,416.25
2018-07-07T09:42:09.541Z,382.50
2018-07-07T09:43:09.565Z,371.25
2018-07-07T09:44:09.663Z,365.63
2018-07-07T09:45:09.609Z,360.00
2018-07-07T09:46:09.644Z,365.63
2018-07-07T09:47:09.661Z,365.63
2018-07-07T09:48:09.688Z,371.25
2018-07-07T09:49:09.712Z,388.13
2018-07-07T09:50:09.737Z,410.63
2018-07-07T09:51:09.756Z,416.25
2018-07-07T09:52:09.785Z,416.25
2018-07-07T09:53:09.804Z,410.63
2018-07-07T09:54:09.835Z,405.00
2018-07-07T09:55:09.860Z,388.13
2018-07-07T09:56:09.980Z,365.63
2018-07-07T09:57:09.906Z,354.38
2018-07-07T09:58:09.928Z,348.75
2018-07-07T09:59:09.952Z,348.75
2018-07-07T10:00:09.974Z,348.75
2018-07-07T10:01:09.998Z,343.13
2018-07-07T10:02:10.026Z,343.13
2018-07-07T10:03:10.049Z,343.13
2018-07-07T10:04:10.070Z,354.38
2018-07-07T10:05:10.095Z,365.63
2018-07-07T10:06:10.117Z,365.63
2018-07-07T10:07:10.143Z,360.00
2018-07-07T10:08:10.165Z,348.75
2018-07-07T10:09:10.189Z,315.00
2018-07-07T10:10:10.216Z,326.25
2018-07-07T10:11:10.241Z,337.50
2018-07-07T10:12:10.263Z,337.50
2018-07-07T10:13:10.288Z,331.88
2018-07-07T10:14:10.311Z,331.88
2018-07-07T10:15:10.332Z,320.63
2018-07-07T10:16:10.363Z,331.88
2018-07-07T10:17:10.387Z,331.88
2018-07-07T10:18:10.409Z,337.50
2018-07-07T10:19:10.427Z,337.50
2018-07-07T10:20:10.456Z,337.50
2018-07-07T10:21:10.476Z,337.50
2018-07-07T10:22:10.504Z,320.63
2018-07-07T10:23:10.524Z,337.50
2018-07-07T10:24:10.548Z,343.13
2018-07-07T10:25:10.577Z,348.75
2018-07-07T10:26:10.610Z,354.38
2018-07-07T10:27:10.620Z,337.50
2018-07-07T10:28:10.642Z,343.13
2018-07-07T10:29:10.667Z,343.13
2018-07-07T10:30:10.692Z,331.88
2018-07-07T10:31:10.715Z,337.50
2018-07-07T10:32:10.743Z,343.13
2018-07-07T10:33:10.763Z,337.50
2018-07-07T10:34:10.791Z,331.88
2018-07-07T10:35:10.823Z,331.88
2018-07-07T10:36:10.841Z,337.50
2018-07-07T10:37:10.862Z,337.50
2018-07-07T10:38:10.912Z,331.88
2018-07-07T10:39:10.905Z,326.25
2018-07-07T10:40:10.942Z,337.50
2018-07-07T10:41:10.957Z,343.13
2018-07-07T10:42:10.983Z,326.25
2018-07-07T10:43:11.012Z,337.50
2018-07-07T10:44:11.045Z,337.50
2018-07-07T10:45:11.068Z,343.13
2018-07-07T10:46:11.161Z,286.88
2018-07-07T10:47:11.106Z,320.63
2018-07-07T10:48:11.130Z,337.50
2018-07-07T10:49:11.174Z,337.50
2018-07-07T10:50:11.193Z,337.50
2018-07-07T10:51:11.206Z,331.88
2018-07-07T10:52:11.232Z,320.63
2018-07-07T10:53:11.262Z,320.63
2018-07-07T10:54:11.269Z,315.00
2018-07-07T10:55:11.309Z,309.38
2018-07-07T10:56:11.321Z,309.38
2018-07-07T10:57:11.343Z,303.75
2018-07-07T10:58:11.374Z,303.75
2018-07-07T10:59:11.394Z,303.75
2018-07-07T11:00:11.421Z,303.75
2018-07-07T11:01:11.439Z,303.75
2018-07-07T11:02:11.467Z,303.75
2018-07-07T11:03:11.507Z,303.75
2018-07-07T11:04:11.528Z,298.13
2018-07-07T11:05:11.533Z,298.13
2018-07-07T11:06:11.557Z,298.13
2018-07-07T11:07:11.581Z,292.50
2018-07-07T11:08:11.604Z,292.50
2018-07-07T11:09:11.651Z,298.13
2018-07-07T11:10:11.661Z,298.13
2018-07-07T11:11:11.679Z,292.50
2018-07-07T11:12:11.779Z,292.50
2018-07-07T11:13:11.729Z,286.88
2018-07-07T11:14:11.752Z,286.88
2018-07-07T11:15:11.772Z,292.50
2018-07-07T11:16:11.804Z,281.25
2018-07-07T11:17:11.832Z,286.88
2018-07-07T11:18:11.845Z,286.88
2018-07-07T11:19:11.867Z,286.88
2018-07-07T11:20:11.896Z,286.88
2018-07-07T11:21:11.938Z,286.88
2018-07-07T11:22:11.962Z,286.88
2018-07-07T11:23:11.965Z,286.88
2018-07-07T11:24:11.991Z,275.63
2018-07-07T11:25:12.010Z,281.25
2018-07-07T11:26:12.040Z,281.25
2018-07-07T11:27:12.058Z,281.25
2018-07-07T11:28:12.090Z,281.25
2018-07-07T11:29:12.112Z,281.25
2018-07-07T11:30:12.131Z,281.25
2018-07-07T11:31:12.156Z,275.63
2018-07-07T11:32:12.183Z,281.25
2018-07-07T11:33:12.201Z,281.25
2018-07-07T11:34:12.233Z,286.88
2018-07-07T11:35:12.249Z,286.88
2018-07-07T11:36:12.326Z,286.88
2018-07-07T11:37:12.310Z,286.88
2018-07-07T11:38:12.328Z,286.88
2018-07-07T11:39:12.351Z,281.25
2018-07-07T11:40:12.378Z,281.25
2018-07-07T11:41:12.396Z,275.63
2018-07-07T11:42:12.439Z,275.63
2018-07-07T11:43:12.440Z,275.63
2018-07-07T11:44:12.472Z,275.63
2018-07-07T11:45:12.493Z,275.63
2018-07-07T11:46:12.521Z,275.63
2018-07-07T11:47:12.543Z,275.63
2018-07-07T11:48:12.564Z,275.63
2018-07-07T11:49:12.587Z,270.00
2018-07-07T11:50:12.681Z,270.00
2018-07-07T11:51:12.651Z,270.00
2018-07-07T11:52:12.668Z,270.00
2018-07-07T11:53:12.685Z,270.00
2018-07-07T11:54:12.713Z,270.00
2018-07-07T11:55:12.736Z,270.00
2018-07-07T11:56:12.764Z,270.00
2018-07-07T11:57:12.839Z,270.00
2018-07-07T11:58:12.805Z,270.00
2018-07-07T11:59:12.831Z,270.00
2018-07-07T12:00:12.868Z,275.63
2018-07-07T12:01:12.888Z,270.00
2018-07-07T12:02:12.902Z,270.00
2018-07-07T12:03:12.928Z,270.00
2018-07-07T12:04:12.961Z,270.00
2018-07-07T12:05:12.976Z,270.00
2018-07-07T12:06:13.024Z,270.00
2018-07-07T12:07:13.018Z,270.00
2018-07-07T12:08:14.254Z,275.63
2018-07-07T12:09:13.096Z,275.63
2018-07-07T12:10:13.115Z,275.63
2018-07-07T12:11:13.173Z,275.63
2018-07-07T12:12:13.144Z,281.25
2018-07-07T12:13:13.241Z,270.00
2018-07-07T12:14:13.190Z,275.63
2018-07-07T12:15:13.238Z,270.00
2018-07-07T12:16:13.247Z,270.00
2018-07-07T12:17:13.283Z,270.00
2018-07-07T12:18:13.295Z,270.00
2018-07-07T12:19:13.317Z,275.63
2018-07-07T12:20:13.340Z,270.00
2018-07-07T12:21:13.366Z,275.63
2018-07-07T12:22:13.393Z,275.63
2018-07-07T12:23:13.423Z,275.63
2018-07-07T12:24:13.439Z,275.63
2018-07-07T12:25:13.467Z,275.63
2018-07-07T12:26:13.502Z,275.63
2018-07-07T12:27:13.509Z,275.63
2018-07-07T12:28:13.531Z,275.63
2018-07-07T12:29:13.555Z,275.63
2018-07-07T12:30:13.580Z,275.63
2018-07-07T12:31:13.658Z,275.63
2018-07-07T12:32:13.628Z,275.63
2018-07-07T12:33:13.650Z,270.00
2018-07-07T12:34:13.680Z,270.00
2018-07-07T12:35:13.695Z,270.00